< < Back
Terminal Aerodrome Forecast


Current Version              Previous Versions:   1  2  3  4  5  6  7  8  9  

Terminal Aerodrome Forecast

826
FTUS42 KTAE 230500
TAFTLH
TAF
KTLH 230527Z 2306/2406 00000KT P6SM SKC
     FM231400 29007KT P6SM SCT040 SCT250
     FM240300 28003KT P6SM FEW250=

Latest METAR

598
SAUS80 KWBC 230900 RRA
MTRTLH
METAR KTLH 230853Z AUTO 00000KT 8SM CLR 26/23 A2997 RMK AO2 SLP146
T02560233 56010 $


USA.gov is the U.S. government's official web portal to all federal, state and local government web resources and services.